createdAt,value
2019-01-29T00:01:32.473Z,98.70
2019-01-29T00:04:00.181Z,98.90
2019-01-29T00:06:27.889Z,98.70
2019-01-29T00:08:55.669Z,98.80
2019-01-29T00:11:23.368Z,98.90
2019-01-29T00:13:51.125Z,99.00
2019-01-29T00:16:18.858Z,99.00
2019-01-29T00:18:46.548Z,98.90
2019-01-29T00:21:14.261Z,99.00
2019-01-29T00:23:41.966Z,99.00
2019-01-29T00:26:09.693Z,99.10
2019-01-29T00:28:37.447Z,99.10
2019-01-29T00:31:05.140Z,99.10
2019-01-29T00:33:32.849Z,99.50
2019-01-29T00:36:00.549Z,99.20
2019-01-29T00:38:28.300Z,99.20
2019-01-29T00:40:55.993Z,99.30
2019-01-29T00:43:23.689Z,99.30
2019-01-29T00:45:51.425Z,99.50
2019-01-29T00:48:19.109Z,99.80
2019-01-29T00:50:46.803Z,99.60
2019-01-29T00:53:14.529Z,99.60
2019-01-29T00:55:42.249Z,99.70
2019-01-29T00:58:09.954Z,99.70
2019-01-29T01:00:37.779Z,99.80
2019-01-29T01:03:05.533Z,99.80
2019-01-29T01:05:33.238Z,99.80
2019-01-29T01:08:00.961Z,99.90
2019-01-29T01:10:28.670Z,99.90
2019-01-29T01:12:56.442Z,99.90
2019-01-29T01:15:24.124Z,99.90
2019-01-29T01:17:51.893Z,99.90
2019-01-29T01:20:19.634Z,99.90
2019-01-29T01:22:51.004Z,99.90
2019-01-29T01:25:16.979Z,99.90
2019-01-29T01:27:44.665Z,99.90
2019-01-29T01:30:17.113Z,99.90
2019-01-29T01:32:44.877Z,99.90
2019-01-29T01:35:12.654Z,99.90
2019-01-29T01:37:40.340Z,99.90
2019-01-29T01:40:14.192Z,99.90
2019-01-29T01:42:41.877Z,99.90
2019-01-29T01:45:09.818Z,99.90
2019-01-29T01:47:37.516Z,99.90
2019-01-29T01:50:05.825Z,99.90
2019-01-29T01:52:33.527Z,99.90
2019-01-29T01:55:01.313Z,99.90
2019-01-29T01:57:29.053Z,99.90
2019-01-29T01:59:56.745Z,99.90
2019-01-29T02:02:24.462Z,99.90
2019-01-29T02:04:52.233Z,99.90
2019-01-29T02:07:19.957Z,99.90
2019-01-29T02:09:47.685Z,99.90
2019-01-29T02:12:15.433Z,99.90
2019-01-29T02:14:43.125Z,99.90
2019-01-29T02:17:10.954Z,99.90
2019-01-29T02:19:38.690Z,99.90
2019-01-29T02:22:06.373Z,99.90
2019-01-29T02:24:34.145Z,99.90
2019-01-29T02:27:01.825Z,99.90
2019-01-29T02:29:29.530Z,99.90
2019-01-29T02:31:57.270Z,99.90
2019-01-29T02:34:24.971Z,99.90
2019-01-29T02:36:52.657Z,99.90
2019-01-29T02:39:20.446Z,99.90
2019-01-29T02:41:48.195Z,99.90
2019-01-29T02:44:15.882Z,99.90
2019-01-29T02:46:43.638Z,99.90
2019-01-29T02:49:11.809Z,99.90
2019-01-29T02:51:39.549Z,99.90
2019-01-29T02:54:07.269Z,99.90
2019-01-29T02:56:34.979Z,99.90
2019-01-29T02:59:02.732Z,99.90
2019-01-29T03:01:30.465Z,99.90
2019-01-29T03:03:58.169Z,99.90
2019-01-29T03:06:25.949Z,99.90
2019-01-29T03:08:53.678Z,99.90
2019-01-29T03:11:21.373Z,99.90
2019-01-29T03:13:49.083Z,99.90
2019-01-29T03:16:17.113Z,99.90
2019-01-29T03:18:44.813Z,99.90
2019-01-29T03:21:12.501Z,99.90
2019-01-29T03:23:40.233Z,99.90
2019-01-29T03:26:07.933Z,99.90
2019-01-29T03:28:35.641Z,99.90
2019-01-29T03:31:03.358Z,99.90
2019-01-29T03:33:31.107Z,99.90
2019-01-29T03:35:58.792Z,99.90
2019-01-29T03:38:26.525Z,99.90
2019-01-29T03:40:54.228Z,99.90
2019-01-29T03:43:21.917Z,99.90
2019-01-29T03:45:49.745Z,99.90
2019-01-29T03:48:17.782Z,99.90
2019-01-29T03:50:45.520Z,99.90
2019-01-29T03:53:13.220Z,99.90
2019-01-29T03:55:40.925Z,99.90
2019-01-29T03:58:08.682Z,99.90
2019-01-29T04:00:36.393Z,99.90
2019-01-29T04:03:04.117Z,99.90
2019-01-29T04:05:31.805Z,99.90
2019-01-29T04:07:59.651Z,99.90
2019-01-29T04:10:27.394Z,99.90
2019-01-29T04:12:55.094Z,99.90
2019-01-29T04:15:23.297Z,99.90
2019-01-29T04:17:54.589Z,99.90
2019-01-29T04:20:22.269Z,99.90
2019-01-29T04:22:50.022Z,99.80
2019-01-29T04:25:17.762Z,99.90
2019-01-29T04:27:45.541Z,99.90
2019-01-29T04:30:17.980Z,99.90
2019-01-29T04:32:45.718Z,99.90
2019-01-29T04:35:13.386Z,99.90
2019-01-29T04:37:41.117Z,99.80
2019-01-29T04:40:10.411Z,99.60
2019-01-29T04:42:38.100Z,99.60
2019-01-29T04:45:07.965Z,99.60
2019-01-29T04:47:35.672Z,99.70
2019-01-29T04:50:03.946Z,99.80
2019-01-29T04:52:31.957Z,99.70
2019-01-29T04:54:59.644Z,99.90
2019-01-29T04:57:27.343Z,99.90
2019-01-29T04:59:55.060Z,99.90
2019-01-29T05:02:22.761Z,99.90
2019-01-29T05:04:50.487Z,99.90
2019-01-29T05:07:18.212Z,99.90
2019-01-29T05:09:46.457Z,99.90
2019-01-29T05:12:14.353Z,99.80
2019-01-29T05:14:42.068Z,99.90
2019-01-29T05:17:09.759Z,99.90
2019-01-29T05:19:37.440Z,99.90
2019-01-29T05:22:05.341Z,99.90
2019-01-29T05:24:32.979Z,99.90
2019-01-29T05:27:00.669Z,99.90
2019-01-29T05:29:28.414Z,99.90
2019-01-29T05:31:56.110Z,99.90
2019-01-29T05:34:24.123Z,99.90
2019-01-29T05:36:51.877Z,99.90
2019-01-29T05:39:19.597Z,99.90
2019-01-29T05:41:47.297Z,99.90
2019-01-29T05:44:15.025Z,99.90
2019-01-29T05:46:42.717Z,99.90
2019-01-29T05:49:10.421Z,99.90
2019-01-29T05:51:40.608Z,99.90
2019-01-29T05:54:15.867Z,99.90
2019-01-29T05:56:38.681Z,99.90
2019-01-29T05:59:06.413Z,99.90
2019-01-29T06:01:34.104Z,99.90
2019-01-29T06:04:01.801Z,99.90
2019-01-29T06:06:29.532Z,99.90
2019-01-29T06:08:57.221Z,99.90
2019-01-29T06:11:25.280Z,99.90
2019-01-29T06:13:52.995Z,99.90
2019-01-29T06:16:20.689Z,99.90
2019-01-29T06:18:48.398Z,99.90
2019-01-29T06:21:16.107Z,99.90
2019-01-29T06:23:43.797Z,99.90
2019-01-29T06:26:11.554Z,99.90
2019-01-29T06:28:39.284Z,99.90
2019-01-29T06:31:06.976Z,99.90
2019-01-29T06:33:34.682Z,99.90
2019-01-29T06:36:02.599Z,99.90
2019-01-29T06:38:30.381Z,99.90
2019-01-29T06:40:58.017Z,99.90
2019-01-29T06:43:25.788Z,99.90
2019-01-29T06:45:53.477Z,99.90
2019-01-29T06:48:21.184Z,99.90
2019-01-29T06:50:48.913Z,99.90
2019-01-29T06:53:16.617Z,99.90
2019-01-29T06:55:44.322Z,99.90
2019-01-29T06:58:12.117Z,99.90
2019-01-29T07:00:40.219Z,99.90
2019-01-29T07:03:07.911Z,99.90
2019-01-29T07:05:35.617Z,99.90
2019-01-29T07:08:03.312Z,99.90
2019-01-29T07:10:31.040Z,99.90
2019-01-29T07:12:58.912Z,99.90
2019-01-29T07:15:45.066Z,99.90
2019-01-29T07:18:35.079Z,99.90
2019-01-29T07:21:05.491Z,99.90
2019-01-29T07:23:33.190Z,99.90
2019-01-29T07:26:00.951Z,99.90
2019-01-29T07:28:28.662Z,99.90
2019-01-29T07:30:56.392Z,99.90
2019-01-29T07:33:24.137Z,99.90
2019-01-29T07:35:51.853Z,99.90
2019-01-29T07:38:19.554Z,99.90
2019-01-29T07:40:47.285Z,99.90
2019-01-29T07:43:14.981Z,99.90
2019-01-29T07:45:42.714Z,99.90
2019-01-29T07:48:10.445Z,99.90
2019-01-29T07:50:38.182Z,99.90
2019-01-29T07:53:05.912Z,99.90
2019-01-29T07:55:33.628Z,99.50
2019-01-29T07:58:01.325Z,99.20
2019-01-29T08:00:29.076Z,98.90
2019-01-29T08:02:56.791Z,98.90
2019-01-29T08:05:24.477Z,99.00
2019-01-29T08:07:52.208Z,98.70
2019-01-29T08:10:20.038Z,98.20
2019-01-29T08:12:47.757Z,97.90
2019-01-29T08:15:15.526Z,97.40
2019-01-29T08:17:43.242Z,97.30
2019-01-29T08:20:10.969Z,97.10
2019-01-29T08:22:38.669Z,96.90
2019-01-29T08:25:06.518Z,96.60
2019-01-29T08:27:34.233Z,96.50
2019-01-29T08:30:02.071Z,96.20
2019-01-29T08:32:29.757Z,95.80
2019-01-29T08:34:57.482Z,95.90
2019-01-29T08:37:25.200Z,95.60
2019-01-29T08:39:52.901Z,95.60
2019-01-29T08:42:20.606Z,95.80
2019-01-29T08:44:48.343Z,95.80
2019-01-29T08:47:16.057Z,95.50
2019-01-29T08:49:43.823Z,95.10
2019-01-29T08:52:11.696Z,95.30
2019-01-29T08:54:39.497Z,95.20
2019-01-29T08:57:08.975Z,95.00
2019-01-29T08:59:36.808Z,95.20
2019-01-29T09:02:04.542Z,95.40
2019-01-29T09:04:32.263Z,95.70
2019-01-29T09:06:59.965Z,95.90
2019-01-29T09:09:27.673Z,96.00
2019-01-29T09:11:55.394Z,96.20
2019-01-29T09:14:23.103Z,96.40
2019-01-29T09:16:50.817Z,96.10
2019-01-29T09:19:18.510Z,96.00
2019-01-29T09:21:46.295Z,95.90
2019-01-29T09:24:13.989Z,95.70
2019-01-29T09:26:41.726Z,95.70
2019-01-29T09:29:17.450Z,95.50
2019-01-29T09:31:38.977Z,95.70
2019-01-29T09:34:06.698Z,95.80
2019-01-29T09:36:34.406Z,95.60
2019-01-29T09:39:02.646Z,95.80
2019-01-29T09:41:30.353Z,95.80
2019-01-29T09:43:58.068Z,95.80
2019-01-29T09:46:25.831Z,95.80
2019-01-29T09:48:53.545Z,95.90
2019-01-29T09:51:21.257Z,96.20
2019-01-29T09:53:49.106Z,95.70
2019-01-29T09:56:16.822Z,95.90
2019-01-29T09:58:44.533Z,95.70
2019-01-29T10:01:12.265Z,95.50
2019-01-29T10:03:40.025Z,95.10
2019-01-29T10:06:07.750Z,94.80
2019-01-29T10:08:35.486Z,94.60
2019-01-29T10:11:03.201Z,94.10
2019-01-29T10:13:31.340Z,94.10
2019-01-29T10:15:59.029Z,93.90
2019-01-29T10:18:26.761Z,93.90
2019-01-29T10:20:54.446Z,93.60
2019-01-29T10:23:22.144Z,93.60
2019-01-29T10:25:49.861Z,93.30
2019-01-29T10:28:17.553Z,93.50
2019-01-29T10:30:45.245Z,93.70
2019-01-29T10:33:12.981Z,94.10
2019-01-29T10:35:40.885Z,94.10
2019-01-29T10:38:08.595Z,94.40
2019-01-29T10:40:37.013Z,94.40
2019-01-29T10:43:05.121Z,94.20
2019-01-29T10:45:32.945Z,94.70
2019-01-29T10:48:00.691Z,94.50
2019-01-29T10:50:28.674Z,94.70
2019-01-29T10:52:56.461Z,94.80
2019-01-29T10:55:24.195Z,94.90
2019-01-29T10:57:52.072Z,95.30
2019-01-29T11:00:22.569Z,95.50
2019-01-29T11:02:50.298Z,95.50
2019-01-29T11:05:18.517Z,95.40
2019-01-29T11:07:46.225Z,95.20
2019-01-29T11:10:14.156Z,95.00
2019-01-29T11:12:41.870Z,94.90
2019-01-29T11:15:21.222Z,94.30
2019-01-29T11:17:48.952Z,93.50
2019-01-29T11:20:16.696Z,93.20
2019-01-29T11:22:44.409Z,93.00
2019-01-29T11:25:16.192Z,92.70
2019-01-29T11:27:43.961Z,93.10
2019-01-29T11:30:13.155Z,92.80
2019-01-29T11:32:40.881Z,92.80
2019-01-29T11:35:08.710Z,92.90
2019-01-29T11:37:36.415Z,92.70
2019-01-29T11:40:04.833Z,92.90
2019-01-29T11:42:32.537Z,92.90
2019-01-29T11:45:00.331Z,92.90
2019-01-29T11:47:28.121Z,92.80
2019-01-29T11:49:55.836Z,92.90
2019-01-29T11:52:23.546Z,93.00
2019-01-29T11:54:51.250Z,92.70
2019-01-29T11:57:18.965Z,92.70
2019-01-29T11:59:46.709Z,92.70
2019-01-29T12:02:16.337Z,92.50
2019-01-29T12:04:44.203Z,92.30
2019-01-29T12:07:11.918Z,92.30
2019-01-29T12:09:39.652Z,92.20
2019-01-29T12:12:07.361Z,92.40
2019-01-29T12:14:35.076Z,92.80
2019-01-29T12:17:02.773Z,92.80
2019-01-29T12:19:30.492Z,93.00
2019-01-29T12:21:58.201Z,93.10
2019-01-29T12:24:25.897Z,93.50
2019-01-29T12:26:53.657Z,93.40
2019-01-29T12:29:21.373Z,93.60
2019-01-29T12:31:49.092Z,93.30
2019-01-29T12:34:16.829Z,93.50
2019-01-29T12:36:44.525Z,93.30
2019-01-29T12:39:12.241Z,93.10
2019-01-29T12:41:39.942Z,93.10
2019-01-29T12:44:07.653Z,93.60
2019-01-29T12:46:35.390Z,93.80
2019-01-29T12:49:03.085Z,93.40
2019-01-29T12:51:56.062Z,93.30
2019-01-29T12:54:23.761Z,93.00
2019-01-29T12:56:51.482Z,92.90
2019-01-29T12:59:19.212Z,92.60
2019-01-29T13:01:46.900Z,92.50
2019-01-29T13:04:14.624Z,92.60
2019-01-29T13:06:42.220Z,92.50
2019-01-29T13:09:11.024Z,92.40
2019-01-29T13:11:38.737Z,92.30
2019-01-29T13:14:06.466Z,92.40
2019-01-29T13:16:34.165Z,92.50
2019-01-29T13:19:01.882Z,92.70
2019-01-29T13:21:29.577Z,92.50
2019-01-29T13:23:57.339Z,92.70
2019-01-29T13:26:29.891Z,92.20
2019-01-29T13:28:54.552Z,91.70
2019-01-29T13:31:22.277Z,92.20
2019-01-29T13:33:50.024Z,91.80
2019-01-29T13:36:17.741Z,92.10
2019-01-29T13:38:45.463Z,92.10
2019-01-29T13:41:13.293Z,91.60
2019-01-29T13:43:40.991Z,91.90
2019-01-29T13:46:08.862Z,91.90
2019-01-29T13:48:36.580Z,92.20
2019-01-29T13:51:04.285Z,92.30
2019-01-29T13:53:32.010Z,92.10
2019-01-29T13:55:59.712Z,92.20
2019-01-29T13:58:27.405Z,92.10
2019-01-29T14:00:55.130Z,92.80
2019-01-29T14:03:22.851Z,92.80
2019-01-29T14:05:50.582Z,92.80
2019-01-29T14:08:18.296Z,92.90
2019-01-29T14:10:46.052Z,92.80
2019-01-29T14:13:13.752Z,93.50
2019-01-29T14:15:46.532Z,93.80
2019-01-29T14:18:15.013Z,94.10
2019-01-29T14:20:42.762Z,93.90
2019-01-29T14:23:10.496Z,93.90
2019-01-29T14:25:38.207Z,93.90
2019-01-29T14:28:05.961Z,93.80
2019-01-29T14:30:33.657Z,94.10
2019-01-29T14:33:01.363Z,94.30
2019-01-29T14:35:29.232Z,94.40
2019-01-29T14:38:45.066Z,94.70
2019-01-29T14:41:13.456Z,94.60
2019-01-29T14:43:46.354Z,94.60
2019-01-29T14:46:14.214Z,94.40
2019-01-29T14:48:41.917Z,94.60
2019-01-29T14:51:09.825Z,94.80
2019-01-29T14:53:37.629Z,94.90
2019-01-29T14:56:05.268Z,94.90
2019-01-29T14:58:33.209Z,94.70
2019-01-29T15:01:00.993Z,95.20
2019-01-29T15:03:28.756Z,95.50
2019-01-29T15:05:56.462Z,95.50
2019-01-29T15:08:24.230Z,95.50
2019-01-29T15:10:51.940Z,95.80
2019-01-29T15:13:19.694Z,95.80
2019-01-29T15:15:51.264Z,96.50
2019-01-29T15:18:22.359Z,96.30
2019-01-29T15:20:50.090Z,96.70
2019-01-29T15:23:17.889Z,97.00
2019-01-29T15:25:45.520Z,97.10
2019-01-29T15:28:13.257Z,97.10
2019-01-29T15:30:41.112Z,97.40
2019-01-29T15:33:08.829Z,97.30
2019-01-29T15:35:36.541Z,97.80
2019-01-29T15:38:04.294Z,97.80
2019-01-29T15:40:32.001Z,97.90
2019-01-29T15:42:59.712Z,98.40
2019-01-29T15:45:27.461Z,98.60
2019-01-29T15:47:55.289Z,98.60
2019-01-29T15:50:23.037Z,98.70
2019-01-29T15:52:50.735Z,98.60
2019-01-29T15:55:18.756Z,98.80
2019-01-29T15:57:46.491Z,98.90
2019-01-29T16:00:17.401Z,98.90
2019-01-29T16:02:45.121Z,99.20
2019-01-29T16:05:14.872Z,99.00
2019-01-29T16:07:42.741Z,99.40
2019-01-29T16:10:12.799Z,99.30
2019-01-29T16:12:40.490Z,99.30
2019-01-29T16:15:09.856Z,99.50
2019-01-29T16:17:37.589Z,98.90
2019-01-29T16:20:05.579Z,99.10
2019-01-29T16:22:33.293Z,99.60
2019-01-29T16:25:01.101Z,99.40
2019-01-29T16:27:28.854Z,99.40
2019-01-29T16:29:57.065Z,99.10
2019-01-29T16:32:24.765Z,99.00
2019-01-29T16:34:52.537Z,98.70
2019-01-29T16:37:20.267Z,98.90
2019-01-29T16:39:48.029Z,98.70
2019-01-29T16:42:15.779Z,98.70
2019-01-29T16:44:43.465Z,98.70
2019-01-29T16:47:11.246Z,98.70
2019-01-29T16:49:38.947Z,98.90
2019-01-29T16:52:06.624Z,99.00
2019-01-29T16:54:34.388Z,99.20
2019-01-29T16:57:02.081Z,99.30
2019-01-29T16:59:29.865Z,99.40
2019-01-29T17:01:57.565Z,99.70
2019-01-29T17:04:25.286Z,99.70
2019-01-29T17:06:52.969Z,99.20
2019-01-29T17:09:20.697Z,99.30
2019-01-29T17:11:48.477Z,99.60
2019-01-29T17:14:16.318Z,99.80
2019-01-29T17:16:44.038Z,99.70
2019-01-29T17:19:11.735Z,99.90
2019-01-29T17:21:39.462Z,99.60
2019-01-29T17:24:07.161Z,99.80
2019-01-29T17:26:35.129Z,99.80
2019-01-29T17:29:02.821Z,99.90
2019-01-29T17:31:30.629Z,99.80
2019-01-29T17:33:58.336Z,99.90
2019-01-29T17:36:26.077Z,99.90
2019-01-29T17:38:53.745Z,99.90
2019-01-29T17:41:21.453Z,99.90
2019-01-29T17:43:49.411Z,99.90
2019-01-29T17:46:17.107Z,99.90
2019-01-29T17:48:44.913Z,99.90
2019-01-29T17:51:12.716Z,99.90
2019-01-29T17:53:40.673Z,99.90
2019-01-29T17:56:08.396Z,99.90
2019-01-29T17:58:36.103Z,99.90
2019-01-29T18:01:04.106Z,99.90
2019-01-29T18:03:31.827Z,99.90
2019-01-29T18:05:59.561Z,99.90
2019-01-29T18:08:27.261Z,99.90
2019-01-29T18:10:55.358Z,99.90
2019-01-29T18:13:23.109Z,99.90
2019-01-29T18:15:50.848Z,99.90
2019-01-29T18:18:18.577Z,99.90
2019-01-29T18:20:46.305Z,99.90
2019-01-29T18:23:13.997Z,99.90
2019-01-29T18:25:41.703Z,99.90
2019-01-29T18:28:09.427Z,99.90
2019-01-29T18:30:37.245Z,99.90
2019-01-29T18:33:04.973Z,99.90
2019-01-29T18:35:32.677Z,99.90
2019-01-29T18:38:00.404Z,99.90
2019-01-29T18:40:34.093Z,99.90
2019-01-29T18:43:01.776Z,99.90
2019-01-29T18:45:29.501Z,99.90
2019-01-29T18:47:57.214Z,99.90
2019-01-29T18:50:25.062Z,99.90
2019-01-29T18:52:52.773Z,99.90
2019-01-29T18:55:20.501Z,99.90
2019-01-29T18:57:48.213Z,99.90
2019-01-29T19:00:18.001Z,99.90
2019-01-29T19:02:45.732Z,99.90
2019-01-29T19:05:13.549Z,99.90
2019-01-29T19:07:41.241Z,99.90
2019-01-29T19:10:10.388Z,99.90
2019-01-29T19:12:38.076Z,99.90
2019-01-29T19:15:08.060Z,99.90
2019-01-29T19:17:35.781Z,99.90
2019-01-29T19:20:04.241Z,99.90
2019-01-29T19:22:51.348Z,99.90
2019-01-29T19:25:19.046Z,99.90
2019-01-29T19:27:46.750Z,99.90
2019-01-29T19:30:22.645Z,99.80
2019-01-29T19:32:50.342Z,99.60
2019-01-29T19:35:17.964Z,99.60
2019-01-29T19:37:45.679Z,99.40
2019-01-29T19:40:13.441Z,99.10
2019-01-29T19:42:41.269Z,99.20
2019-01-29T19:45:13.512Z,99.00
2019-01-29T19:47:41.237Z,99.10
2019-01-29T19:50:12.773Z,98.90
2019-01-29T19:52:40.488Z,98.90
2019-01-29T19:55:08.201Z,99.10
2019-01-29T19:57:35.933Z,99.20
2019-01-29T20:00:04.377Z,99.30
2019-01-29T20:02:37.918Z,99.40
2019-01-29T20:05:06.001Z,99.50
2019-01-29T20:07:33.709Z,99.30
2019-01-29T20:10:01.412Z,99.10
2019-01-29T20:12:29.129Z,98.80
2019-01-29T20:14:56.833Z,98.40
2019-01-29T20:17:24.651Z,98.10
2019-01-29T20:19:52.338Z,98.40
2019-01-29T20:22:20.049Z,98.60
2019-01-29T20:24:47.761Z,98.60
2019-01-29T20:27:15.539Z,98.80
2019-01-29T20:29:43.269Z,98.90
2019-01-29T20:32:10.948Z,99.20
2019-01-29T20:34:38.657Z,99.30
2019-01-29T20:37:06.353Z,99.10
2019-01-29T20:39:34.972Z,98.50
2019-01-29T20:42:03.001Z,98.70
2019-01-29T20:44:30.709Z,98.40
2019-01-29T20:46:58.350Z,98.30
2019-01-29T20:49:26.373Z,98.30
2019-01-29T20:51:54.216Z,98.00
2019-01-29T20:54:21.909Z,98.00
2019-01-29T20:56:49.605Z,97.90
2019-01-29T20:59:17.358Z,97.70
2019-01-29T21:01:45.264Z,97.70
2019-01-29T21:04:13.138Z,97.80
2019-01-29T21:06:40.845Z,98.00
2019-01-29T21:09:09.045Z,97.90
2019-01-29T21:11:36.763Z,97.90
2019-01-29T21:14:04.460Z,97.40
2019-01-29T21:16:32.177Z,97.00
2019-01-29T21:18:59.929Z,97.20
2019-01-29T21:21:27.646Z,97.90
2019-01-29T21:23:55.337Z,98.40
2019-01-29T21:26:23.141Z,98.60
2019-01-29T21:28:50.992Z,98.40
2019-01-29T21:31:18.738Z,99.00
2019-01-29T21:33:46.434Z,99.10
2019-01-29T21:36:14.141Z,99.50
2019-01-29T21:38:41.859Z,99.30
2019-01-29T21:41:09.562Z,99.50
2019-01-29T21:43:37.283Z,99.30
2019-01-29T21:46:04.980Z,99.10
2019-01-29T21:48:32.752Z,98.70
2019-01-29T21:51:00.055Z,98.20
2019-01-29T21:53:27.755Z,98.00
2019-01-29T21:55:55.452Z,97.40
2019-01-29T21:58:23.241Z,97.30
2019-01-29T22:00:50.990Z,96.90
2019-01-29T22:03:18.729Z,96.60
2019-01-29T22:05:46.435Z,96.80
2019-01-29T22:08:14.141Z,97.10
2019-01-29T22:10:41.897Z,96.80
2019-01-29T22:13:10.816Z,96.80
2019-01-29T22:15:38.675Z,96.20
2019-01-29T22:18:07.954Z,96.10
2019-01-29T22:20:38.869Z,96.80
2019-01-29T22:23:06.648Z,96.70
2019-01-29T22:25:35.863Z,96.40
2019-01-29T22:28:05.287Z,96.30
2019-01-29T22:30:34.566Z,96.30
2019-01-29T22:33:04.590Z,96.30
2019-01-29T22:35:32.341Z,96.30
2019-01-29T22:38:00.466Z,96.10
2019-01-29T22:40:28.471Z,96.20
2019-01-29T22:42:57.261Z,96.40
2019-01-29T22:45:25.041Z,96.80
2019-01-29T22:47:54.562Z,97.40
2019-01-29T22:50:27.352Z,97.60
2019-01-29T22:52:55.411Z,97.20
2019-01-29T22:55:23.157Z,97.20
2019-01-29T22:57:55.913Z,97.00
2019-01-29T23:01:14.669Z,97.30
2019-01-29T23:03:44.562Z,96.80
2019-01-29T23:06:43.442Z,96.40
2019-01-29T23:09:11.280Z,96.60
2019-01-29T23:11:41.137Z,96.40
2019-01-29T23:14:10.398Z,96.50
2019-01-29T23:16:38.576Z,96.70
2019-01-29T23:19:06.338Z,96.50
2019-01-29T23:21:35.834Z,95.50
2019-01-29T23:24:03.924Z,95.30
2019-01-29T23:26:31.651Z,95.30
2019-01-29T23:28:59.455Z,95.60
2019-01-29T23:31:27.149Z,95.50
2019-01-29T23:33:54.889Z,95.60
2019-01-29T23:36:25.386Z,95.80
2019-01-29T23:38:55.615Z,96.20
2019-01-29T23:41:23.477Z,96.40
2019-01-29T23:43:51.183Z,96.30
2019-01-29T23:46:18.969Z,96.50
2019-01-29T23:48:46.684Z,96.60
2019-01-29T23:51:14.789Z,96.70
2019-01-29T23:53:42.479Z,96.70
2019-01-29T23:56:10.217Z,96.70
2019-01-29T23:58:37.937Z,97.00
